createdAt,value
2023-04-15T00:01:08.255Z,100.00
2023-04-15T00:03:36.475Z,100.00
2023-04-15T00:06:04.515Z,100.00
2023-04-15T00:08:31.872Z,100.00
2023-04-15T00:11:03.127Z,100.00
2023-04-15T00:13:30.623Z,100.00
2023-04-15T00:15:58.330Z,100.00
2023-04-15T00:18:25.769Z,100.00
2023-04-15T00:20:53.634Z,100.00
2023-04-15T00:23:21.061Z,100.00
2023-04-15T00:25:48.769Z,100.00
2023-04-15T00:28:16.024Z,100.00
2023-04-15T00:30:44.165Z,100.00
2023-04-15T00:33:11.487Z,100.00
2023-04-15T00:35:39.682Z,100.00
2023-04-15T00:38:08.442Z,100.00
2023-04-15T00:40:36.156Z,100.00
2023-04-15T00:43:04.393Z,100.00
2023-04-15T00:45:32.217Z,100.00
2023-04-15T00:48:00.620Z,100.00
2023-04-15T00:50:28.222Z,100.00
2023-04-15T00:52:56.248Z,100.00
2023-04-15T00:55:26.341Z,100.00
2023-04-15T00:57:53.675Z,100.00
2023-04-15T01:00:23.049Z,100.00
2023-04-15T01:02:51.087Z,100.00
2023-04-15T01:05:19.754Z,100.00
2023-04-15T01:07:48.374Z,100.00
2023-04-15T01:10:16.093Z,100.00
2023-04-15T01:12:44.728Z,100.00
2023-04-15T01:15:12.426Z,100.00
2023-04-15T01:17:40.173Z,100.00
2023-04-15T01:20:11.763Z,100.00
2023-04-15T01:22:39.636Z,100.00
2023-04-15T01:25:19.858Z,100.00
2023-04-15T01:27:47.802Z,100.00
2023-04-15T01:30:17.143Z,100.00
2023-04-15T01:32:44.554Z,100.00
2023-04-15T01:35:12.533Z,100.00
2023-04-15T01:37:39.795Z,100.00
2023-04-15T01:40:10.218Z,100.00
2023-04-15T01:42:38.508Z,100.00
2023-04-15T01:45:07.328Z,100.00
2023-04-15T01:47:34.703Z,100.00
2023-04-15T01:50:02.865Z,100.00
2023-04-15T01:52:30.581Z,100.00
2023-04-15T01:54:58.428Z,100.00
2023-04-15T01:57:25.653Z,100.00
2023-04-15T01:59:53.234Z,100.00
2023-04-15T02:02:22.150Z,100.00
2023-04-15T02:04:50.538Z,100.00
2023-04-15T02:07:19.797Z,100.00
2023-04-15T02:09:47.812Z,100.00
2023-04-15T02:12:15.112Z,100.00
2023-04-15T02:14:42.690Z,100.00
2023-04-15T02:17:10.046Z,100.00
2023-04-15T02:19:38.360Z,100.00
2023-04-15T02:22:07.424Z,100.00
2023-04-15T02:24:35.974Z,100.00
2023-04-15T02:27:03.738Z,100.00
2023-04-15T02:29:33.260Z,100.00
2023-04-15T02:32:02.628Z,100.00
2023-04-15T02:34:31.652Z,100.00
2023-04-15T02:36:59.834Z,100.00
2023-04-15T02:39:27.531Z,100.00
2023-04-15T02:41:56.941Z,100.00
2023-04-15T02:44:25.242Z,100.00
2023-04-15T02:46:58.439Z,100.00
2023-04-15T02:49:26.535Z,100.00
2023-04-15T02:51:54.058Z,100.00
2023-04-15T02:54:26.078Z,100.00
2023-04-15T02:56:55.483Z,100.00
2023-04-15T02:59:23.692Z,100.00
2023-04-15T03:01:51.291Z,100.00
2023-04-15T03:04:19.181Z,100.00
2023-04-15T03:06:47.158Z,100.00
2023-04-15T03:09:15.424Z,100.00
2023-04-15T03:11:43.560Z,100.00
2023-04-15T03:14:11.407Z,100.00
2023-04-15T03:16:43.626Z,100.00
2023-04-15T03:19:12.935Z,100.00
2023-04-15T03:21:43.125Z,100.00
2023-04-15T03:28:44.374Z,100.00
2023-04-15T03:31:16.443Z,100.00
2023-04-15T03:33:44.214Z,100.00
2023-04-15T03:36:11.668Z,100.00
2023-04-15T03:38:39.240Z,100.00
2023-04-15T03:41:08.233Z,100.00
2023-04-15T03:43:36.146Z,100.00
2023-04-15T03:46:05.852Z,100.00
2023-04-15T03:48:34.616Z,100.00
2023-04-15T03:51:02.360Z,100.00
2023-04-15T03:53:31.655Z,100.00
2023-04-15T03:55:59.014Z,100.00
2023-04-15T03:58:26.917Z,100.00
2023-04-15T04:00:55.627Z,100.00
2023-04-15T04:03:24.109Z,100.00
2023-04-15T04:05:52.694Z,100.00
2023-04-15T04:08:22.554Z,100.00
2023-04-15T04:10:49.848Z,100.00
2023-04-15T04:13:18.757Z,100.00
2023-04-15T04:15:46.322Z,100.00
2023-04-15T04:18:13.890Z,100.00
2023-04-15T04:20:41.985Z,100.00
2023-04-15T04:23:10.405Z,100.00
2023-04-15T04:25:37.847Z,100.00
2023-04-15T04:28:05.481Z,100.00
2023-04-15T04:30:33.146Z,100.00
2023-04-15T04:33:01.032Z,100.00
2023-04-15T04:35:30.624Z,100.00
2023-04-15T04:37:58.278Z,100.00
2023-04-15T04:40:28.190Z,100.00
2023-04-15T04:42:56.859Z,100.00
2023-04-15T04:45:51.804Z,100.00
2023-04-15T04:48:32.068Z,100.00
2023-04-15T04:51:03.332Z,100.00
2023-04-15T04:53:57.421Z,100.00
2023-04-15T04:56:26.802Z,100.00
2023-04-15T04:58:54.422Z,100.00
2023-04-15T05:01:21.817Z,100.00
2023-04-15T05:03:49.724Z,100.00
2023-04-15T05:06:17.057Z,100.00
2023-04-15T05:08:48.206Z,100.00
2023-04-15T05:11:16.416Z,100.00
2023-04-15T05:13:44.067Z,100.00
2023-04-15T05:16:11.323Z,100.00
2023-04-15T05:18:41.611Z,100.00
2023-04-15T05:21:08.952Z,100.00
2023-04-15T05:23:36.840Z,100.00
2023-04-15T05:26:04.241Z,100.00
2023-04-15T05:28:32.729Z,100.00
2023-04-15T05:31:00.325Z,100.00
2023-04-15T05:33:28.082Z,100.00
2023-04-15T05:35:55.729Z,100.00
2023-04-15T05:38:23.491Z,100.00
2023-04-15T05:40:51.041Z,100.00
2023-04-15T05:43:18.803Z,100.00
2023-04-15T05:45:46.287Z,100.00
2023-04-15T05:48:14.019Z,100.00
2023-04-15T05:50:44.521Z,100.00
2023-04-15T05:53:12.311Z,100.00
2023-04-15T05:55:39.575Z,100.00
2023-04-15T05:58:08.203Z,100.00
2023-04-15T06:00:36.650Z,100.00
2023-04-15T06:03:04.471Z,100.00
2023-04-15T06:05:31.686Z,100.00
2023-04-15T06:07:59.212Z,97.73
2023-04-15T06:10:26.510Z,79.25
2023-04-15T06:12:54.757Z,78.91
2023-04-15T06:15:23.188Z,71.22
2023-04-15T06:17:51.969Z,68.32
2023-04-15T06:20:19.677Z,64.32
2023-04-15T06:22:47.421Z,63.41
2023-04-15T06:25:14.863Z,63.66
2023-04-15T06:27:42.443Z,64.78
2023-04-15T06:30:10.329Z,64.12
2023-04-15T06:32:38.060Z,63.56
2023-04-15T06:35:05.707Z,62.38
2023-04-15T06:37:33.242Z,59.29
2023-04-15T06:40:00.614Z,60.24
2023-04-15T06:42:28.269Z,60.69
2023-04-15T06:44:55.873Z,59.98
2023-04-15T06:47:23.494Z,59.68
2023-04-15T06:49:51.157Z,58.91
2023-04-15T06:52:18.874Z,57.99
2023-04-15T06:54:46.122Z,57.56
2023-04-15T06:57:15.047Z,55.76
2023-04-15T06:59:43.194Z,56.71
2023-04-15T07:02:14.106Z,57.82
2023-04-15T07:04:42.037Z,55.58
2023-04-15T07:07:12.874Z,53.94
2023-04-15T07:09:40.167Z,53.59
2023-04-15T07:12:07.833Z,52.69
2023-04-15T07:14:35.141Z,54.48
2023-04-15T07:17:02.904Z,54.61
2023-04-15T07:19:30.228Z,54.16
2023-04-15T07:21:57.855Z,54.46
2023-04-15T07:24:26.942Z,56.45
2023-04-15T07:26:59.434Z,55.70
2023-04-15T07:29:28.239Z,52.75
2023-04-15T07:31:57.388Z,54.08
2023-04-15T07:34:24.737Z,53.22
2023-04-15T07:36:52.802Z,54.00
2023-04-15T07:39:21.239Z,52.51
2023-04-15T07:41:50.837Z,52.37
2023-04-15T07:44:19.225Z,54.28
2023-04-15T07:46:46.841Z,51.24
2023-04-15T07:49:14.630Z,51.11
2023-04-15T07:51:44.559Z,51.53
2023-04-15T07:54:11.895Z,50.56
2023-04-15T07:56:39.478Z,50.68
2023-04-15T07:59:07.185Z,49.85
2023-04-15T08:01:36.965Z,50.80
2023-04-15T08:04:04.496Z,50.17
2023-04-15T08:06:34.141Z,48.17
2023-04-15T08:09:05.662Z,47.89
2023-04-15T08:11:35.096Z,49.19
2023-04-15T08:14:02.558Z,47.54
2023-04-15T08:16:30.241Z,49.47
2023-04-15T08:18:58.033Z,48.44
2023-04-15T08:21:26.044Z,48.60
2023-04-15T08:23:54.684Z,47.01
2023-04-15T08:26:22.980Z,46.54
2023-04-15T08:28:50.443Z,47.54
2023-04-15T08:31:19.482Z,46.72
2023-04-15T08:33:49.550Z,46.01
2023-04-15T08:36:17.675Z,47.16
2023-04-15T08:38:47.838Z,48.22
2023-04-15T08:41:23.672Z,46.93
2023-04-15T08:43:58.513Z,46.59
2023-04-15T08:46:28.213Z,45.03
2023-04-15T08:48:58.101Z,44.86
2023-04-15T08:51:26.726Z,42.82
2023-04-15T08:53:57.483Z,43.14
2023-04-15T08:56:29.608Z,43.38
2023-04-15T08:58:58.057Z,42.49
2023-04-15T09:01:26.764Z,41.56
2023-04-15T09:03:57.346Z,42.15
2023-04-15T09:06:25.851Z,39.01
2023-04-15T09:08:53.254Z,39.27
2023-04-15T09:11:22.507Z,40.15
2023-04-15T09:13:50.088Z,41.56
2023-04-15T09:16:17.829Z,41.22
2023-04-15T09:18:45.152Z,41.78
2023-04-15T09:21:15.764Z,43.55
2023-04-15T09:24:01.565Z,46.01
2023-04-15T09:26:37.330Z,41.27
2023-04-15T09:29:07.087Z,39.05
2023-04-15T09:31:35.232Z,39.10
2023-04-15T09:34:04.805Z,40.44
2023-04-15T09:36:57.067Z,41.24
2023-04-15T09:39:24.473Z,38.20
2023-04-15T09:42:07.031Z,39.60
2023-04-15T09:44:35.896Z,40.87
2023-04-15T09:47:04.028Z,39.33
2023-04-15T09:49:31.349Z,38.38
2023-04-15T09:52:06.115Z,38.03
2023-04-15T09:54:39.172Z,37.89
2023-04-15T09:57:08.570Z,37.90
2023-04-15T09:59:36.442Z,37.60
2023-04-15T10:02:10.832Z,37.50
2023-04-15T10:04:41.685Z,37.46
2023-04-15T10:07:10.031Z,39.95
2023-04-15T10:09:39.142Z,36.75
2023-04-15T10:12:09.217Z,36.48
2023-04-15T10:14:38.872Z,35.97
2023-04-15T10:17:11.641Z,35.87
2023-04-15T10:19:39.227Z,35.33
2023-04-15T10:22:08.186Z,36.19
2023-04-15T10:24:35.579Z,36.80
2023-04-15T10:27:07.568Z,35.70
2023-04-15T10:29:35.027Z,36.36
2023-04-15T10:32:03.845Z,35.85
2023-04-15T10:34:32.438Z,36.54
2023-04-15T10:37:06.893Z,37.00
2023-04-15T10:39:37.685Z,37.85
2023-04-15T10:42:11.067Z,36.51
2023-04-15T10:44:58.848Z,36.34
2023-04-15T10:47:26.584Z,36.35
2023-04-15T10:50:02.619Z,38.26
2023-04-15T10:52:31.062Z,37.08
2023-04-15T10:55:23.286Z,36.12
2023-04-15T10:57:58.983Z,35.81
2023-04-15T11:00:29.923Z,36.34
2023-04-15T11:03:11.036Z,36.66
2023-04-15T11:05:54.640Z,37.23
2023-04-15T11:08:54.168Z,34.62
2023-04-15T11:11:23.005Z,35.28
2023-04-15T11:13:52.755Z,35.20
2023-04-15T11:16:20.432Z,35.09
2023-04-15T11:18:57.018Z,36.85
2023-04-15T11:21:28.322Z,36.44
2023-04-15T11:23:56.968Z,36.02
2023-04-15T11:26:28.394Z,37.39
2023-04-15T11:29:26.290Z,36.30
2023-04-15T11:32:05.174Z,39.83
2023-04-15T11:34:34.539Z,39.47
2023-04-15T11:37:06.873Z,39.32
2023-04-15T11:39:35.154Z,38.41
2023-04-15T11:42:02.630Z,39.94
2023-04-15T11:44:32.775Z,40.30
2023-04-15T11:47:00.857Z,38.94
2023-04-15T11:49:31.354Z,37.72
2023-04-15T11:52:01.427Z,37.60
2023-04-15T11:54:31.805Z,37.13
2023-04-15T11:57:02.035Z,37.66
2023-04-15T11:59:45.391Z,37.79
2023-04-15T12:02:15.106Z,37.08
2023-04-15T12:04:43.201Z,35.78
2023-04-15T12:07:12.804Z,36.56
2023-04-15T12:09:43.228Z,37.13
2023-04-15T12:12:13.579Z,36.09
2023-04-15T12:14:45.301Z,38.07
2023-04-15T12:17:13.386Z,37.93
2023-04-15T12:19:43.360Z,36.06
2023-04-15T12:22:15.963Z,34.20
2023-04-15T12:24:47.123Z,36.07
2023-04-15T12:27:16.434Z,35.71
2023-04-15T12:29:44.082Z,36.67
2023-04-15T12:32:21.154Z,37.14
2023-04-15T12:34:53.340Z,36.87
2023-04-15T12:37:22.127Z,34.86
2023-04-15T12:39:50.665Z,34.64
2023-04-15T12:42:18.564Z,33.99
2023-04-15T12:44:47.088Z,35.39
2023-04-15T12:47:14.583Z,37.46
2023-04-15T12:49:42.412Z,36.59
2023-04-15T12:52:09.784Z,35.74
2023-04-15T12:54:37.422Z,36.33
2023-04-15T12:57:07.217Z,35.95
2023-04-15T12:59:35.865Z,34.38
2023-04-15T13:02:04.281Z,33.73
2023-04-15T13:04:33.817Z,34.70
2023-04-15T13:07:02.353Z,33.78
2023-04-15T13:09:30.163Z,34.17
2023-04-15T13:11:57.796Z,35.72
2023-04-15T13:14:25.398Z,32.88
2023-04-15T13:16:53.931Z,33.18
2023-04-15T13:19:21.656Z,34.47
2023-04-15T13:21:49.269Z,32.38
2023-04-15T13:24:18.426Z,32.96
2023-04-15T13:26:45.759Z,32.45
2023-04-15T13:29:14.241Z,32.67
2023-04-15T13:31:41.573Z,33.49
2023-04-15T13:34:09.139Z,33.62
2023-04-15T13:36:36.425Z,34.94
2023-04-15T13:39:05.575Z,34.20
2023-04-15T13:41:35.127Z,34.12
2023-04-15T13:44:03.481Z,34.93
2023-04-15T13:46:30.876Z,33.99
2023-04-15T13:48:58.503Z,33.44
2023-04-15T13:51:27.113Z,33.03
2023-04-15T13:53:54.749Z,34.06
2023-04-15T13:56:22.303Z,34.46
2023-04-15T13:58:50.061Z,33.70
2023-04-15T14:01:43.864Z,35.65
2023-04-15T14:04:14.039Z,33.32
2023-04-15T14:06:46.842Z,31.71
2023-04-15T14:09:16.387Z,33.11
2023-04-15T14:11:43.700Z,32.59
2023-04-15T14:14:11.277Z,34.62
2023-04-15T14:16:38.599Z,34.19
2023-04-15T14:19:06.696Z,34.44
2023-04-15T14:21:35.119Z,33.87
2023-04-15T14:24:05.044Z,35.56
2023-04-15T14:26:32.380Z,35.00
2023-04-15T14:29:00.714Z,35.78
2023-04-15T14:31:28.243Z,34.94
2023-04-15T14:33:56.112Z,35.75
2023-04-15T14:36:23.438Z,34.17
2023-04-15T14:38:51.141Z,35.21
2023-04-15T14:41:18.440Z,35.96
2023-04-15T14:43:48.059Z,35.28
2023-04-15T14:46:15.656Z,36.97
2023-04-15T14:48:43.454Z,36.84
2023-04-15T14:51:10.868Z,35.74
2023-04-15T14:53:38.500Z,35.64
2023-04-15T14:56:07.365Z,36.58
2023-04-15T14:58:36.869Z,34.76
2023-04-15T15:01:04.712Z,35.69
2023-04-15T15:03:34.294Z,37.38
2023-04-15T15:06:01.665Z,36.81
2023-04-15T15:08:30.044Z,38.42
2023-04-15T15:10:58.074Z,39.96
2023-04-15T15:13:25.826Z,42.20
2023-04-15T15:15:54.433Z,39.53
2023-04-15T15:18:22.116Z,40.01
2023-04-15T15:20:49.719Z,42.30
2023-04-15T15:23:36.009Z,41.37
2023-04-15T15:26:03.355Z,41.31
2023-04-15T15:28:31.174Z,42.42
2023-04-15T15:31:00.567Z,42.29
2023-04-15T15:33:30.110Z,43.22
2023-04-15T15:35:58.355Z,42.97
2023-04-15T15:38:26.462Z,44.16
2023-04-15T15:40:56.000Z,44.17
2023-04-15T15:43:23.929Z,44.32
2023-04-15T15:45:55.535Z,45.09
2023-04-15T15:48:26.216Z,44.74
2023-04-15T15:50:53.714Z,48.28
2023-04-15T15:53:24.329Z,46.46
2023-04-15T15:55:53.716Z,47.01
2023-04-15T15:58:21.818Z,47.15
2023-04-15T16:00:49.390Z,50.06
2023-04-15T16:03:18.636Z,51.81
2023-04-15T16:05:47.993Z,55.88
2023-04-15T16:08:16.260Z,58.06
2023-04-15T16:10:43.584Z,61.96
2023-04-15T16:13:11.455Z,63.32
2023-04-15T16:15:38.773Z,65.66
2023-04-15T16:18:06.394Z,67.16
2023-04-15T16:20:58.869Z,67.62
2023-04-15T16:23:29.378Z,72.92
2023-04-15T16:25:57.734Z,77.19
2023-04-15T16:28:27.104Z,78.21
2023-04-15T16:30:57.243Z,78.41
2023-04-15T16:33:24.927Z,76.85
2023-04-15T16:35:53.126Z,74.92
2023-04-15T16:38:21.797Z,72.28
2023-04-15T16:40:49.174Z,73.38
2023-04-15T16:43:17.925Z,73.92
2023-04-15T16:45:51.002Z,75.42
2023-04-15T16:48:20.887Z,72.68
2023-04-15T16:50:49.566Z,72.01
2023-04-15T16:53:17.172Z,72.79
2023-04-15T16:55:44.433Z,72.66
2023-04-15T16:58:12.052Z,74.10
2023-04-15T17:00:40.475Z,74.21
2023-04-15T17:03:12.520Z,73.37
2023-04-15T17:05:40.163Z,73.03
2023-04-15T17:08:08.643Z,75.83
2023-04-15T17:10:36.664Z,75.61
2023-04-15T17:13:04.439Z,74.97
2023-04-15T17:15:31.737Z,75.37
2023-04-15T17:18:00.688Z,77.50
2023-04-15T17:20:30.278Z,78.38
2023-04-15T17:23:00.544Z,78.23
2023-04-15T17:25:28.092Z,77.48
2023-04-15T17:27:55.798Z,77.32
2023-04-15T17:30:23.724Z,79.64
2023-04-15T17:32:52.963Z,81.95
2023-04-15T17:35:28.020Z,81.44
2023-04-15T17:37:58.527Z,83.80
2023-04-15T17:40:26.091Z,84.91
2023-04-15T17:42:54.923Z,83.08
2023-04-15T17:45:23.120Z,83.68
2023-04-15T17:47:51.088Z,86.22
2023-04-15T17:50:18.522Z,80.81
2023-04-15T17:52:48.472Z,79.15
2023-04-15T17:55:16.094Z,78.98
2023-04-15T17:57:46.521Z,80.08
2023-04-15T18:00:16.986Z,81.28
2023-04-15T18:02:45.389Z,81.40
2023-04-15T18:05:15.375Z,85.79
2023-04-15T18:07:43.672Z,80.64
2023-04-15T18:10:11.832Z,78.03
2023-04-15T18:12:39.640Z,79.37
2023-04-15T18:15:09.685Z,80.24
2023-04-15T18:17:37.402Z,81.83
2023-04-15T18:20:10.896Z,82.69
2023-04-15T18:22:43.546Z,82.87
2023-04-15T18:25:14.388Z,81.87
2023-04-15T18:27:43.009Z,83.57
2023-04-15T18:30:13.759Z,81.48
2023-04-15T18:32:41.876Z,81.73
2023-04-15T18:35:10.484Z,84.14
2023-04-15T18:37:38.445Z,85.65
2023-04-15T18:40:16.495Z,82.88
2023-04-15T18:42:53.254Z,85.88
2023-04-15T18:45:20.952Z,84.79
2023-04-15T18:47:48.912Z,84.35
2023-04-15T18:50:17.586Z,86.19
2023-04-15T18:52:45.237Z,85.24
2023-04-15T18:55:15.350Z,83.62
2023-04-15T18:57:50.028Z,79.79
2023-04-15T19:00:23.194Z,81.62
2023-04-15T19:02:53.049Z,82.04
2023-04-15T19:05:20.616Z,81.81
2023-04-15T19:07:50.553Z,81.08
2023-04-15T19:10:17.948Z,83.02
2023-04-15T19:12:45.747Z,75.46
2023-04-15T19:15:13.046Z,72.12
2023-04-15T19:17:40.921Z,76.48
2023-04-15T19:20:20.363Z,75.46
2023-04-15T19:23:16.694Z,77.44
2023-04-15T19:25:45.979Z,75.12
2023-04-15T19:28:15.583Z,75.16
2023-04-15T19:30:44.090Z,76.49
2023-04-15T19:33:11.401Z,74.03
2023-04-15T19:35:41.137Z,75.94
2023-04-15T19:38:08.482Z,75.91
2023-04-15T19:40:38.360Z,74.71
2023-04-15T19:43:06.738Z,75.99
2023-04-15T19:45:34.797Z,73.02
2023-04-15T19:48:02.250Z,72.81
2023-04-15T19:50:30.111Z,73.05
2023-04-15T19:52:58.550Z,72.46
2023-04-15T19:55:26.374Z,71.88
2023-04-15T19:57:54.365Z,73.23
2023-04-15T20:00:26.252Z,73.27
2023-04-15T20:02:58.713Z,71.17
2023-04-15T20:05:29.831Z,70.46
2023-04-15T20:08:00.424Z,71.22
2023-04-15T20:10:28.416Z,71.39
2023-04-15T20:12:57.173Z,71.77
2023-04-15T20:15:26.519Z,72.86
2023-04-15T20:17:54.692Z,71.24
2023-04-15T20:20:24.758Z,73.35
2023-04-15T20:22:53.287Z,74.72
2023-04-15T20:25:22.154Z,72.79
2023-04-15T20:27:49.494Z,71.37
2023-04-15T20:30:20.073Z,72.45
2023-04-15T20:32:47.489Z,72.22
2023-04-15T20:35:15.128Z,74.41
2023-04-15T20:37:45.280Z,74.12
2023-04-15T20:40:18.464Z,74.05
2023-04-15T20:42:48.094Z,73.41
2023-04-15T20:45:23.565Z,75.75
2023-04-15T20:47:51.591Z,75.43
2023-04-15T20:50:20.606Z,75.09
2023-04-15T20:52:49.575Z,75.55
2023-04-15T20:55:17.213Z,76.31
2023-04-15T20:57:49.932Z,76.17
2023-04-15T21:00:20.407Z,75.67
2023-04-15T21:02:49.314Z,74.95
2023-04-15T21:05:20.396Z,75.03
2023-04-15T21:07:47.662Z,74.85
2023-04-15T21:10:15.557Z,76.93
2023-04-15T21:12:42.911Z,73.60
2023-04-15T21:15:11.795Z,76.08
2023-04-15T21:17:39.859Z,73.02
2023-04-15T21:20:12.338Z,73.06
2023-04-15T21:22:41.333Z,73.88
2023-04-15T21:25:09.442Z,73.43
2023-04-15T21:27:36.703Z,73.81
2023-04-15T21:30:04.649Z,74.07
2023-04-15T21:32:34.687Z,75.62
2023-04-15T21:35:02.751Z,74.72
2023-04-15T21:37:30.052Z,72.77
2023-04-15T21:39:57.625Z,73.35
2023-04-15T21:42:32.879Z,74.71
2023-04-15T21:45:01.900Z,74.07
2023-04-15T21:48:06.113Z,74.56
2023-04-15T21:50:24.989Z,75.67
2023-04-15T21:52:56.569Z,76.40
2023-04-15T21:55:27.443Z,77.22
2023-04-15T21:57:57.021Z,75.94
2023-04-15T22:00:24.946Z,75.27
2023-04-15T22:02:56.585Z,75.69
2023-04-15T22:05:25.553Z,75.71
2023-04-15T22:07:54.141Z,78.02
2023-04-15T22:10:21.937Z,75.43
2023-04-15T22:12:51.187Z,77.08
2023-04-15T22:15:18.750Z,75.81
2023-04-15T22:17:47.112Z,74.90
2023-04-15T22:20:19.188Z,75.64
2023-04-15T22:22:46.625Z,76.30
2023-04-15T22:25:16.276Z,75.29
2023-04-15T22:27:44.243Z,77.77
2023-04-15T22:30:13.409Z,77.23
2023-04-15T22:32:40.900Z,77.15
2023-04-15T22:35:09.001Z,76.57
2023-04-15T22:37:36.289Z,79.02
2023-04-15T22:40:29.270Z,75.62
2023-04-15T22:43:00.759Z,75.93
2023-04-15T22:45:28.411Z,76.33
2023-04-15T22:47:55.813Z,76.79
2023-04-15T22:50:23.624Z,77.20
2023-04-15T22:52:51.348Z,77.42
2023-04-15T22:55:19.207Z,75.51
2023-04-15T22:57:46.613Z,75.20
2023-04-15T23:00:16.560Z,74.50
2023-04-15T23:02:44.312Z,75.50
2023-04-15T23:05:13.603Z,73.73
2023-04-15T23:07:41.628Z,73.76
2023-04-15T23:10:10.550Z,74.69
2023-04-15T23:12:39.028Z,74.13
2023-04-15T23:15:07.309Z,75.45
2023-04-15T23:17:35.068Z,74.65
2023-04-15T23:20:10.072Z,76.82
2023-04-15T23:22:38.650Z,79.91
2023-04-15T23:25:06.618Z,81.06
2023-04-15T23:27:33.926Z,81.04
2023-04-15T23:30:01.675Z,81.06
2023-04-15T23:32:29.373Z,81.86
2023-04-15T23:35:04.258Z,83.21
2023-04-15T23:37:32.827Z,84.00
2023-04-15T23:40:29.527Z,85.68
2023-04-15T23:43:09.392Z,87.41
2023-04-15T23:45:41.559Z,86.97
2023-04-15T23:48:11.939Z,88.55
2023-04-15T23:50:41.299Z,88.67
2023-04-15T23:53:10.816Z,92.31
2023-04-15T23:55:44.860Z,87.85
2023-04-15T23:58:12.203Z,88.03
